createdAt,value
2023-02-05T00:00:16.896Z,-0.14
2023-02-05T00:01:16.793Z,-0.18
2023-02-05T00:02:16.838Z,-0.03
2023-02-05T00:03:16.772Z,-0.06
2023-02-05T00:04:16.790Z,-0.03
2023-02-05T00:05:17.304Z,0.07
2023-02-05T00:06:16.744Z,-0.03
2023-02-05T00:07:16.739Z,0.03
2023-02-05T00:08:16.823Z,-0.06
2023-02-05T00:09:16.705Z,0.01
2023-02-05T00:10:16.874Z,-0.03
2023-02-05T00:11:16.732Z,-0.02
2023-02-05T00:12:16.794Z,0.00
2023-02-05T00:13:16.690Z,-0.08
2023-02-05T00:14:16.710Z,-0.03
2023-02-05T00:15:16.813Z,-0.13
2023-02-05T00:16:16.734Z,-0.08
2023-02-05T00:17:16.724Z,0.00
2023-02-05T00:18:16.683Z,0.03
2023-02-05T00:19:16.658Z,0.03
2023-02-05T00:20:16.693Z,0.12
2023-02-05T00:21:16.726Z,0.10
2023-02-05T00:22:16.664Z,0.04
2023-02-05T00:23:16.653Z,0.03
2023-02-05T00:24:16.612Z,-0.06
2023-02-05T00:25:16.635Z,-0.08
2023-02-05T00:26:16.650Z,0.01
2023-02-05T00:27:16.618Z,0.04
2023-02-05T00:28:16.606Z,0.05
2023-02-05T00:29:16.630Z,0.01
2023-02-05T00:30:16.631Z,-0.08
2023-02-05T00:31:16.719Z,0.04
2023-02-05T00:32:16.599Z,0.01
2023-02-05T00:33:16.659Z,0.03
2023-02-05T00:34:16.558Z,0.05
2023-02-05T00:35:16.566Z,0.26
2023-02-05T00:36:16.550Z,0.03
2023-02-05T00:37:16.642Z,0.07
2023-02-05T00:38:16.560Z,0.03
2023-02-05T00:39:16.556Z,0.03
2023-02-05T00:40:16.577Z,0.07
2023-02-05T00:41:16.512Z,-0.03
2023-02-05T00:42:16.567Z,0.07
2023-02-05T00:43:16.485Z,-0.06
2023-02-05T00:44:16.493Z,-0.02
2023-02-05T00:45:16.501Z,0.03
2023-02-05T00:46:16.499Z,0.00
2023-02-05T00:47:16.463Z,-0.08
2023-02-05T00:48:16.468Z,-0.03
2023-02-05T00:49:16.630Z,0.05
2023-02-05T00:50:16.467Z,0.00
2023-02-05T00:51:16.439Z,0.05
2023-02-05T00:52:16.449Z,0.00
2023-02-05T00:53:16.432Z,0.04
2023-02-05T00:54:16.518Z,0.07
2023-02-05T00:55:16.414Z,0.05
2023-02-05T00:56:16.443Z,0.05
2023-02-05T00:57:16.433Z,0.07
2023-02-05T00:58:16.560Z,0.00
2023-02-05T00:59:16.389Z,0.05
2023-02-05T01:00:16.470Z,-0.02
2023-02-05T01:01:16.421Z,-0.07
2023-02-05T01:02:16.437Z,-0.07
2023-02-05T01:03:16.358Z,-0.15
2023-02-05T01:04:16.412Z,-0.02
2023-02-05T01:05:16.360Z,0.05
2023-02-05T01:06:16.432Z,-0.02
2023-02-05T01:07:16.360Z,-0.03
2023-02-05T01:08:16.340Z,-0.07
2023-02-05T01:09:16.331Z,-0.03
2023-02-05T01:10:16.321Z,-0.06
2023-02-05T01:11:16.325Z,0.04
2023-02-05T01:12:16.289Z,0.01
2023-02-05T01:13:17.934Z,-0.07
2023-02-05T01:14:16.285Z,-0.13
2023-02-05T01:15:16.291Z,-0.13
2023-02-05T01:16:16.401Z,-0.14
2023-02-05T01:17:16.303Z,-0.17
2023-02-05T01:18:16.285Z,-0.15
2023-02-05T01:19:16.259Z,-0.08
2023-02-05T01:20:16.281Z,-0.14
2023-02-05T01:21:16.274Z,-0.08
2023-02-05T01:22:16.228Z,-0.21
2023-02-05T01:23:16.239Z,-0.14
2023-02-05T01:24:16.222Z,-0.15
2023-02-05T01:25:16.194Z,-0.08
2023-02-05T01:26:16.359Z,-0.26
2023-02-05T01:27:16.285Z,-0.32
2023-02-05T01:28:16.296Z,-0.18
2023-02-05T01:29:16.216Z,-0.20
2023-02-05T01:30:16.245Z,-0.28
2023-02-05T01:31:16.381Z,-0.31
2023-02-05T01:32:16.166Z,-0.21
2023-02-05T01:33:16.315Z,-0.20
2023-02-05T01:34:16.157Z,-0.23
2023-02-05T01:35:16.157Z,-0.28
2023-02-05T01:36:16.132Z,-0.18
2023-02-05T01:37:16.144Z,-0.20
2023-02-05T01:38:16.198Z,-0.29
2023-02-05T01:39:16.204Z,-0.25
2023-02-05T01:40:16.170Z,-0.39
2023-02-05T01:41:16.100Z,-0.34
2023-02-05T01:42:16.107Z,-0.35
2023-02-05T01:43:16.090Z,-0.39
2023-02-05T01:44:16.190Z,-0.46
2023-02-05T01:45:16.083Z,-0.43
2023-02-05T01:46:16.187Z,-0.41
2023-02-05T01:47:16.086Z,-0.28
2023-02-05T01:48:16.081Z,-0.43
2023-02-05T01:49:16.063Z,-0.39
2023-02-05T01:50:16.101Z,-0.35
2023-02-05T01:51:16.053Z,-0.34
2023-02-05T01:52:16.030Z,-0.32
2023-02-05T01:53:16.181Z,-0.25
2023-02-05T01:54:16.131Z,-0.32
2023-02-05T01:55:16.091Z,-0.38
2023-02-05T01:56:16.040Z,-0.34
2023-02-05T01:57:16.001Z,-0.29
2023-02-05T01:58:16.005Z,-0.34
2023-02-05T01:59:16.008Z,-0.41
2023-02-05T02:00:15.996Z,-0.35
2023-02-05T02:01:16.105Z,-0.54
2023-02-05T02:02:16.059Z,-0.52
2023-02-05T02:03:16.112Z,-0.50
2023-02-05T02:04:16.003Z,-0.62
2023-02-05T02:05:16.021Z,-0.59
2023-02-05T02:06:15.978Z,-0.61
2023-02-05T02:07:15.976Z,-0.53
2023-02-05T02:08:16.041Z,-0.64
2023-02-05T02:09:16.019Z,-0.56
2023-02-05T02:10:15.926Z,-0.59
2023-02-05T02:11:15.925Z,-0.61
2023-02-05T02:12:15.888Z,-0.52
2023-02-05T02:13:15.925Z,-0.50
2023-02-05T02:14:15.942Z,-0.43
2023-02-05T02:15:15.897Z,-0.46
2023-02-05T02:16:16.072Z,-0.39
2023-02-05T02:17:15.938Z,-0.46
2023-02-05T02:18:15.880Z,-0.44
2023-02-05T02:19:15.959Z,-0.41
2023-02-05T02:20:15.873Z,-0.43
2023-02-05T02:21:15.856Z,-0.36
2023-02-05T02:22:15.888Z,-0.39
2023-02-05T02:23:15.932Z,-0.43
2023-02-05T02:24:15.872Z,-0.43
2023-02-05T02:25:15.824Z,-0.59
2023-02-05T02:26:15.860Z,-0.49
2023-02-05T02:27:15.837Z,-0.57
2023-02-05T02:28:15.840Z,-0.57
2023-02-05T02:29:15.987Z,-0.57
2023-02-05T02:30:15.785Z,-0.39
2023-02-05T02:31:15.936Z,-0.41
2023-02-05T02:32:15.754Z,-0.43
2023-02-05T02:33:15.751Z,-0.41
2023-02-05T02:34:15.751Z,-0.39
2023-02-05T02:35:15.813Z,-0.43
2023-02-05T02:36:15.883Z,-0.44
2023-02-05T02:37:15.752Z,-0.41
2023-02-05T02:38:22.723Z,-0.47
2023-02-05T02:39:15.712Z,-0.46
2023-02-05T02:40:15.746Z,-0.41
2023-02-05T02:41:16.696Z,-0.38
2023-02-05T02:42:15.688Z,-0.41
2023-02-05T02:43:15.672Z,-0.44
2023-02-05T02:44:15.679Z,-0.43
2023-02-05T02:45:15.688Z,-0.43
2023-02-05T02:46:15.669Z,-0.47
2023-02-05T02:47:15.652Z,-0.43
2023-02-05T02:48:15.645Z,-0.36
2023-02-05T02:49:15.645Z,-0.39
2023-02-05T02:50:15.632Z,-0.39
2023-02-05T02:51:15.658Z,-0.38
2023-02-05T02:52:15.616Z,-0.31
2023-02-05T02:53:15.625Z,-0.28
2023-02-05T02:54:15.626Z,-0.18
2023-02-05T02:55:15.596Z,-0.23
2023-02-05T02:56:15.617Z,-0.18
2023-02-05T02:57:15.581Z,-0.15
2023-02-05T02:58:15.585Z,-0.15
2023-02-05T02:59:15.570Z,-0.06
2023-02-05T03:00:15.570Z,-0.03
2023-02-05T03:01:15.571Z,-0.07
2023-02-05T03:02:15.573Z,0.01
2023-02-05T03:03:15.564Z,0.00
2023-02-05T03:04:15.562Z,-0.15
2023-02-05T03:05:15.538Z,-0.15
2023-02-05T03:06:15.562Z,-0.14
2023-02-05T03:07:15.538Z,-0.23
2023-02-05T03:08:15.527Z,-0.20
2023-02-05T03:09:15.509Z,-0.32
2023-02-05T03:10:15.510Z,-0.25
2023-02-05T03:11:15.521Z,-0.17
2023-02-05T03:12:15.519Z,-0.25
2023-02-05T03:13:15.506Z,-0.14
2023-02-05T03:14:15.498Z,-0.20
2023-02-05T03:15:15.497Z,-0.20
2023-02-05T03:16:15.529Z,-0.08
2023-02-05T03:17:15.465Z,-0.13
2023-02-05T03:18:15.464Z,-0.15
2023-02-05T03:19:15.493Z,-0.14
2023-02-05T03:20:15.461Z,-0.03
2023-02-05T03:21:15.453Z,-0.10
2023-02-05T03:22:15.451Z,-0.08
2023-02-05T03:23:15.438Z,-0.03
2023-02-05T03:24:15.421Z,-0.02
2023-02-05T03:25:15.415Z,-0.03
2023-02-05T03:26:15.413Z,-0.03
2023-02-05T03:27:15.409Z,-0.08
2023-02-05T03:28:15.450Z,-0.11
2023-02-05T03:29:15.402Z,-0.08
2023-02-05T03:30:15.427Z,0.07
2023-02-05T03:31:15.403Z,-0.13
2023-02-05T03:32:15.395Z,0.01
2023-02-05T03:33:15.385Z,-0.08
2023-02-05T03:34:15.365Z,-0.07
2023-02-05T03:35:15.367Z,0.03
2023-02-05T03:36:15.354Z,-0.03
2023-02-05T03:37:15.352Z,-0.02
2023-02-05T03:38:15.355Z,0.04
2023-02-05T03:39:15.333Z,0.03
2023-02-05T03:40:15.331Z,-0.07
2023-02-05T03:41:15.349Z,0.04
2023-02-05T03:42:15.341Z,0.01
2023-02-05T03:43:15.312Z,0.04
2023-02-05T03:44:15.311Z,0.07
2023-02-05T03:45:15.299Z,0.01
2023-02-05T03:46:15.296Z,0.00
2023-02-05T03:47:15.309Z,0.04
2023-02-05T03:48:15.300Z,-0.08
2023-02-05T03:49:15.278Z,-0.02
2023-02-05T03:50:15.289Z,-0.06
2023-02-05T03:51:15.260Z,-0.07
2023-02-05T03:52:15.260Z,0.01
2023-02-05T03:53:15.267Z,-0.08
2023-02-05T03:54:15.249Z,-0.03
2023-02-05T03:55:15.240Z,0.00
2023-02-05T03:56:15.258Z,-0.02
2023-02-05T03:57:15.230Z,0.05
2023-02-05T03:58:15.221Z,0.07
2023-02-05T03:59:15.213Z,0.04
2023-02-05T04:00:15.225Z,0.07
2023-02-05T04:01:15.266Z,0.03
2023-02-05T04:02:15.224Z,0.04
2023-02-05T04:03:15.183Z,0.10
2023-02-05T04:04:15.203Z,0.04
2023-02-05T04:05:15.178Z,0.08
2023-02-05T04:06:15.175Z,0.16
2023-02-05T04:07:15.160Z,0.11
2023-02-05T04:08:15.162Z,0.19
2023-02-05T04:09:15.166Z,0.16
2023-02-05T04:10:15.149Z,0.28
2023-02-05T04:11:15.134Z,0.22
2023-02-05T04:12:15.173Z,0.28
2023-02-05T04:13:15.125Z,0.25
2023-02-05T04:14:15.149Z,0.28
2023-02-05T04:15:15.125Z,0.28
2023-02-05T04:16:15.198Z,0.23
2023-02-05T04:17:15.094Z,0.29
2023-02-05T04:18:15.124Z,0.29
2023-02-05T04:19:15.091Z,0.26
2023-02-05T04:20:15.109Z,0.26
2023-02-05T04:21:15.092Z,0.25
2023-02-05T04:22:15.066Z,0.31
2023-02-05T04:23:15.073Z,0.25
2023-02-05T04:24:15.208Z,0.08
2023-02-05T04:25:15.056Z,0.10
2023-02-05T04:26:15.052Z,0.16
2023-02-05T04:27:15.060Z,0.19
2023-02-05T04:28:15.079Z,0.12
2023-02-05T04:29:15.051Z,0.18
2023-02-05T04:30:15.052Z,0.11
2023-02-05T04:31:15.079Z,0.10
2023-02-05T04:32:15.017Z,0.22
2023-02-05T04:33:15.079Z,0.15
2023-02-05T04:34:15.014Z,0.18
2023-02-05T04:35:14.981Z,0.07
2023-02-05T04:36:14.982Z,0.15
2023-02-05T04:37:14.987Z,0.08
2023-02-05T04:38:14.976Z,0.05
2023-02-05T04:39:14.961Z,0.05
2023-02-05T04:40:15.003Z,0.00
2023-02-05T04:41:14.951Z,0.00
2023-02-05T04:42:14.949Z,0.05
2023-02-05T04:43:14.941Z,0.08
2023-02-05T04:44:14.940Z,0.04
2023-02-05T04:45:14.943Z,0.07
2023-02-05T04:46:14.960Z,0.03
2023-02-05T04:47:14.914Z,0.05
2023-02-05T04:48:14.929Z,-0.02
2023-02-05T04:49:14.907Z,0.00
2023-02-05T04:50:14.914Z,-0.03
2023-02-05T04:51:14.905Z,0.00
2023-02-05T04:52:14.886Z,-0.07
2023-02-05T04:53:14.878Z,-0.10
2023-02-05T04:54:14.880Z,-0.08
2023-02-05T04:55:14.884Z,-0.06
2023-02-05T04:56:14.874Z,-0.10
2023-02-05T04:57:14.876Z,-0.13
2023-02-05T04:58:14.857Z,-0.17
2023-02-05T04:59:14.854Z,-0.11
2023-02-05T05:00:14.851Z,-0.13
2023-02-05T05:01:14.876Z,-0.14
2023-02-05T05:02:14.847Z,-0.17
2023-02-05T05:03:14.815Z,0.03
2023-02-05T05:04:14.834Z,-0.13
2023-02-05T05:05:14.805Z,-0.20
2023-02-05T05:06:14.806Z,-0.08
2023-02-05T05:07:14.794Z,-0.15
2023-02-05T05:08:14.812Z,-0.10
2023-02-05T05:09:14.778Z,-0.10
2023-02-05T05:10:14.815Z,-0.03
2023-02-05T05:11:14.769Z,-0.03
2023-02-05T05:12:14.778Z,0.00
2023-02-05T05:13:14.783Z,0.04
2023-02-05T05:14:14.786Z,0.05
2023-02-05T05:15:14.754Z,0.04
2023-02-05T05:16:14.757Z,0.10
2023-02-05T05:17:14.751Z,0.22
2023-02-05T05:18:14.739Z,0.22
2023-02-05T05:19:14.752Z,0.21
2023-02-05T05:20:14.742Z,0.26
2023-02-05T05:21:14.716Z,0.25
2023-02-05T05:22:14.709Z,0.39
2023-02-05T05:23:14.703Z,0.39
2023-02-05T05:24:14.697Z,0.40
2023-02-05T05:25:14.714Z,0.41
2023-02-05T05:26:14.701Z,0.39
2023-02-05T05:27:14.668Z,0.49
2023-02-05T05:28:14.726Z,0.40
2023-02-05T05:29:14.682Z,0.41
2023-02-05T05:30:14.656Z,0.55
2023-02-05T05:31:14.668Z,0.66
2023-02-05T05:32:14.690Z,0.63
2023-02-05T05:33:14.646Z,0.60
2023-02-05T05:34:14.632Z,0.62
2023-02-05T05:35:14.633Z,0.62
2023-02-05T05:36:14.620Z,0.68
2023-02-05T05:37:14.632Z,0.63
2023-02-05T05:38:14.630Z,0.50
2023-02-05T05:39:14.610Z,0.46
2023-02-05T05:40:14.600Z,0.44
2023-02-05T05:41:14.592Z,0.43
2023-02-05T05:42:14.606Z,0.32
2023-02-05T05:43:14.577Z,0.36
2023-02-05T05:44:14.580Z,0.25
2023-02-05T05:45:14.566Z,0.19
2023-02-05T05:46:14.583Z,0.29
2023-02-05T05:47:14.580Z,0.29
2023-02-05T05:48:14.557Z,0.19
2023-02-05T05:49:14.574Z,0.21
2023-02-05T05:50:14.539Z,0.19
2023-02-05T05:51:14.530Z,0.29
2023-02-05T05:52:14.542Z,0.28
2023-02-05T05:53:14.527Z,0.29
2023-02-05T05:54:14.513Z,0.32
2023-02-05T05:55:14.528Z,0.40
2023-02-05T05:56:14.502Z,0.47
2023-02-05T05:57:14.506Z,0.56
2023-02-05T05:58:14.486Z,0.55
2023-02-05T05:59:14.492Z,0.49
2023-02-05T06:00:14.474Z,0.60
2023-02-05T06:01:14.457Z,0.66
2023-02-05T06:02:14.518Z,0.69
2023-02-05T06:03:14.478Z,0.78
2023-02-05T06:04:14.490Z,0.76
2023-02-05T06:05:14.464Z,0.78
2023-02-05T06:06:14.440Z,0.77
2023-02-05T06:07:14.432Z,0.77
2023-02-05T06:08:14.423Z,0.81
2023-02-05T06:09:14.418Z,0.73
2023-02-05T06:10:14.417Z,0.66
2023-02-05T06:11:14.425Z,0.73
2023-02-05T06:12:14.404Z,0.62
2023-02-05T06:13:14.401Z,0.60
2023-02-05T06:14:14.391Z,0.62
2023-02-05T06:15:14.405Z,0.43
2023-02-05T06:16:14.424Z,0.49
2023-02-05T06:17:14.384Z,0.37
2023-02-05T06:18:14.357Z,0.28
2023-02-05T06:19:14.385Z,0.26
2023-02-05T06:20:14.367Z,0.29
2023-02-05T06:21:14.365Z,0.34
2023-02-05T06:22:14.352Z,0.28
2023-02-05T06:23:14.340Z,0.34
2023-02-05T06:24:14.371Z,0.37
2023-02-05T06:25:14.323Z,0.49
2023-02-05T06:26:14.323Z,0.52
2023-02-05T06:27:14.317Z,0.68
2023-02-05T06:28:14.360Z,0.66
2023-02-05T06:29:14.323Z,0.68
2023-02-05T06:30:14.307Z,0.66
2023-02-05T06:31:14.380Z,0.81
2023-02-05T06:32:14.292Z,0.78
2023-02-05T06:33:14.284Z,0.70
2023-02-05T06:34:14.282Z,0.84
2023-02-05T06:35:14.290Z,0.77
2023-02-05T06:36:14.266Z,0.94
2023-02-05T06:37:14.261Z,0.86
2023-02-05T06:38:14.255Z,1.01
2023-02-05T06:39:14.242Z,0.95
2023-02-05T06:40:14.264Z,1.04
2023-02-05T06:41:14.245Z,1.04
2023-02-05T06:42:14.223Z,1.04
2023-02-05T06:43:14.224Z,1.14
2023-02-05T06:44:14.218Z,1.24
2023-02-05T06:45:14.207Z,1.14
2023-02-05T06:46:14.233Z,1.08
2023-02-05T06:47:14.203Z,1.12
2023-02-05T06:48:14.191Z,0.99
2023-02-05T06:49:14.176Z,0.95
2023-02-05T06:50:14.198Z,0.91
2023-02-05T06:51:14.162Z,0.94
2023-02-05T06:52:14.155Z,0.95
2023-02-05T06:53:14.179Z,0.95
2023-02-05T06:54:14.168Z,1.01
2023-02-05T06:55:14.138Z,1.06
2023-02-05T06:56:14.138Z,0.91
2023-02-05T06:57:14.130Z,0.83
2023-02-05T06:58:14.147Z,0.83
2023-02-05T06:59:14.125Z,0.73
2023-02-05T07:00:14.123Z,0.66
2023-02-05T07:01:14.101Z,0.60
2023-02-05T07:02:14.111Z,0.73
2023-02-05T07:03:14.110Z,0.65
2023-02-05T07:04:14.089Z,0.81
2023-02-05T07:05:14.089Z,0.74
2023-02-05T07:06:14.081Z,0.81
2023-02-05T07:07:14.078Z,0.78
2023-02-05T07:08:14.079Z,0.88
2023-02-05T07:09:14.077Z,0.99
2023-02-05T07:10:14.061Z,1.05
2023-02-05T07:11:14.054Z,1.06
2023-02-05T07:12:14.060Z,1.10
2023-02-05T07:13:14.060Z,1.12
2023-02-05T07:14:14.037Z,1.10
2023-02-05T07:15:14.022Z,1.23
2023-02-05T07:16:14.054Z,1.28
2023-02-05T07:17:14.034Z,1.30
2023-02-05T07:18:14.041Z,1.28
2023-02-05T07:19:14.003Z,1.06
2023-02-05T07:20:14.009Z,0.99
2023-02-05T07:21:13.995Z,0.92
2023-02-05T07:22:13.992Z,0.88
2023-02-05T07:23:14.007Z,0.80
2023-02-05T07:24:14.005Z,0.77
2023-02-05T07:25:13.974Z,0.74
2023-02-05T07:26:13.972Z,0.70
2023-02-05T07:27:13.980Z,0.65
2023-02-05T07:28:14.031Z,0.74
2023-02-05T07:29:13.951Z,0.80
2023-02-05T07:30:13.986Z,0.80
2023-02-05T07:31:14.066Z,0.84
2023-02-05T07:32:13.944Z,0.96
2023-02-05T07:33:13.926Z,0.92
2023-02-05T07:34:13.932Z,1.01
2023-02-05T07:35:13.917Z,1.02
2023-02-05T07:36:13.934Z,1.16
2023-02-05T07:37:13.900Z,1.17
2023-02-05T07:38:13.904Z,1.20
2023-02-05T07:39:13.901Z,1.19
2023-02-05T07:40:13.892Z,1.12
2023-02-05T07:41:13.879Z,1.12
2023-02-05T07:42:13.902Z,1.13
2023-02-05T07:43:13.865Z,1.17
2023-02-05T07:44:13.864Z,1.04
2023-02-05T07:45:13.855Z,1.13
2023-02-05T07:46:13.880Z,0.98
2023-02-05T07:47:13.842Z,0.99
2023-02-05T07:48:13.832Z,0.98
2023-02-05T07:49:13.843Z,0.88
2023-02-05T07:50:13.820Z,0.83
2023-02-05T07:51:13.874Z,0.91
2023-02-05T07:52:13.819Z,0.84
2023-02-05T07:53:13.809Z,0.78
2023-02-05T07:54:13.800Z,0.77
2023-02-05T07:55:13.799Z,0.96
2023-02-05T07:56:13.803Z,0.86
2023-02-05T07:57:13.807Z,0.94
2023-02-05T07:58:13.789Z,0.95
2023-02-05T07:59:13.764Z,0.99
2023-02-05T08:00:13.765Z,1.14
2023-02-05T08:01:13.773Z,1.23
2023-02-05T08:02:13.755Z,1.28
2023-02-05T08:03:13.764Z,1.28
2023-02-05T08:04:13.781Z,1.35
2023-02-05T08:05:13.726Z,1.38
2023-02-05T08:06:13.728Z,1.40
2023-02-05T08:07:13.729Z,1.37
2023-02-05T08:08:13.736Z,1.52
2023-02-05T08:09:13.723Z,1.42
2023-02-05T08:10:13.703Z,1.41
2023-02-05T08:11:13.693Z,1.49
2023-02-05T08:12:13.771Z,1.40
2023-02-05T08:13:13.700Z,1.40
2023-02-05T08:14:13.680Z,1.45
2023-02-05T08:15:13.698Z,1.44
2023-02-05T08:16:13.727Z,1.45
2023-02-05T08:17:13.689Z,1.44
2023-02-05T08:18:13.666Z,1.56
2023-02-05T08:19:13.686Z,1.56
2023-02-05T08:20:13.663Z,1.53
2023-02-05T08:21:13.654Z,1.66
2023-02-05T08:22:13.627Z,1.74
2023-02-05T08:23:13.636Z,1.70
2023-02-05T08:24:13.624Z,1.71
2023-02-05T08:25:13.645Z,1.78
2023-02-05T08:26:13.612Z,1.76
2023-02-05T08:27:13.634Z,1.66
2023-02-05T08:28:13.628Z,1.71
2023-02-05T08:29:13.585Z,1.63
2023-02-05T08:30:13.623Z,1.62
2023-02-05T08:31:13.650Z,1.66
2023-02-05T08:32:13.589Z,1.60
2023-02-05T08:33:13.564Z,1.62
2023-02-05T08:34:13.572Z,1.67
2023-02-05T08:35:13.589Z,1.59
2023-02-05T08:36:13.588Z,1.62
2023-02-05T08:37:13.539Z,1.76
2023-02-05T08:38:13.548Z,1.70
2023-02-05T08:39:20.544Z,1.62
2023-02-05T08:40:13.530Z,1.55
2023-02-05T08:41:13.552Z,1.56
2023-02-05T08:42:13.517Z,1.40
2023-02-05T08:43:13.519Z,1.42
2023-02-05T08:44:13.505Z,1.38
2023-02-05T08:45:13.503Z,1.50
2023-02-05T08:46:13.579Z,1.56
2023-02-05T08:47:13.497Z,1.37
2023-02-05T08:48:13.482Z,1.40
2023-02-05T08:49:13.489Z,1.35
2023-02-05T08:50:13.479Z,1.26
2023-02-05T08:51:13.461Z,1.38
2023-02-05T08:52:13.480Z,1.45
2023-02-05T08:53:13.450Z,1.42
2023-02-05T08:54:13.652Z,1.45
2023-02-05T08:55:13.432Z,1.40
2023-02-05T08:56:13.433Z,1.49
2023-02-05T08:57:13.445Z,1.55
2023-02-05T08:58:13.417Z,1.56
2023-02-05T08:59:13.414Z,1.66
2023-02-05T09:00:13.431Z,1.67
2023-02-05T09:01:13.452Z,1.71
2023-02-05T09:02:13.410Z,1.62
2023-02-05T09:03:13.416Z,1.67
2023-02-05T09:04:13.461Z,1.73
2023-02-05T09:05:13.394Z,1.60
2023-02-05T09:06:13.395Z,1.71
2023-02-05T09:07:13.371Z,1.62
2023-02-05T09:08:13.389Z,1.62
2023-02-05T09:09:13.376Z,1.71
2023-02-05T09:10:13.375Z,1.71
2023-02-05T09:11:13.354Z,1.74
2023-02-05T09:12:13.340Z,1.74
2023-02-05T09:13:13.333Z,1.76
2023-02-05T09:14:13.349Z,1.87
2023-02-05T09:15:13.347Z,1.89
2023-02-05T09:16:13.357Z,2.04
2023-02-05T09:17:13.305Z,2.14
2023-02-05T09:18:13.299Z,2.08
2023-02-05T09:19:13.293Z,2.13
2023-02-05T09:20:13.286Z,2.15
2023-02-05T09:21:13.289Z,2.14
2023-02-05T09:22:13.281Z,2.15
2023-02-05T09:23:13.268Z,2.17
2023-02-05T09:24:13.287Z,2.13
2023-02-05T09:25:13.283Z,2.13
2023-02-05T09:26:13.256Z,2.06
2023-02-05T09:27:13.247Z,2.04
2023-02-05T09:28:13.285Z,1.95
2023-02-05T09:29:13.230Z,2.00
2023-02-05T09:30:13.277Z,1.89
2023-02-05T09:31:13.362Z,1.89
2023-02-05T09:32:13.219Z,1.89
2023-02-05T09:33:13.230Z,1.78
2023-02-05T09:34:13.232Z,1.84
2023-02-05T09:35:13.200Z,1.88
2023-02-05T09:36:13.227Z,1.78
2023-02-05T09:37:13.189Z,1.77
2023-02-05T09:38:13.191Z,1.73
2023-02-05T09:39:25.651Z,1.53
2023-02-05T09:40:22.076Z,1.56
2023-02-05T09:41:14.201Z,1.55
2023-02-05T09:42:13.192Z,1.55
2023-02-05T09:43:13.185Z,1.48
2023-02-05T09:44:13.177Z,1.45
2023-02-05T09:45:13.175Z,1.45
2023-02-05T09:46:13.252Z,1.40
2023-02-05T09:47:13.140Z,1.40
2023-02-05T09:48:13.169Z,1.52
2023-02-05T09:49:13.125Z,1.49
2023-02-05T09:50:13.140Z,1.45
2023-02-05T09:51:13.151Z,1.48
2023-02-05T09:52:13.132Z,1.42
2023-02-05T09:53:13.109Z,1.50
2023-02-05T09:54:13.150Z,1.45
2023-02-05T09:55:13.158Z,1.37
2023-02-05T09:56:13.106Z,1.38
2023-02-05T09:57:13.079Z,1.42
2023-02-05T09:58:13.076Z,1.44
2023-02-05T09:59:13.095Z,1.44
2023-02-05T10:00:13.090Z,1.49
2023-02-05T10:01:13.090Z,1.52
2023-02-05T10:02:13.056Z,1.55
2023-02-05T10:03:13.048Z,1.48
2023-02-05T10:04:13.071Z,1.60
2023-02-05T10:05:13.029Z,1.50
2023-02-05T10:06:13.042Z,1.50
2023-02-05T10:07:13.026Z,1.60
2023-02-05T10:08:13.043Z,1.55
2023-02-05T10:09:12.999Z,1.67
2023-02-05T10:10:13.008Z,1.66
2023-02-05T10:11:13.002Z,1.74
2023-02-05T10:12:13.012Z,1.67
2023-02-05T10:13:13.015Z,1.70
2023-02-05T10:14:12.984Z,1.76
2023-02-05T10:15:12.969Z,1.66
2023-02-05T10:16:12.972Z,1.62
2023-02-05T10:17:12.948Z,1.70
2023-02-05T10:18:12.988Z,1.67
2023-02-05T10:19:12.951Z,1.62
2023-02-05T10:20:12.935Z,1.70
2023-02-05T10:21:12.959Z,1.73
2023-02-05T10:22:12.931Z,1.59
2023-02-05T10:23:12.920Z,1.76
2023-02-05T10:24:12.924Z,1.76
2023-02-05T10:25:12.936Z,1.76
2023-02-05T10:26:12.936Z,1.80
2023-02-05T10:27:12.907Z,1.74
2023-02-05T10:28:12.911Z,1.60
2023-02-05T10:29:12.890Z,1.68
2023-02-05T10:30:12.883Z,1.71
2023-02-05T10:31:12.966Z,1.71
2023-02-05T10:32:12.886Z,1.73
2023-02-05T10:33:12.885Z,1.71
2023-02-05T10:34:12.874Z,1.78
2023-02-05T10:35:12.907Z,1.68
2023-02-05T10:36:12.861Z,1.58
2023-02-05T10:37:12.858Z,1.66
2023-02-05T10:38:12.847Z,1.63
2023-02-05T10:39:12.846Z,1.70
2023-02-05T10:40:12.877Z,1.80
2023-02-05T10:41:12.819Z,1.84
2023-02-05T10:42:12.818Z,1.89
2023-02-05T10:43:12.826Z,1.95
2023-02-05T10:44:12.816Z,2.15
2023-02-05T10:45:12.785Z,2.11
2023-02-05T10:46:12.849Z,2.20
2023-02-05T10:47:12.839Z,2.17
2023-02-05T10:48:12.796Z,2.10
2023-02-05T10:49:12.785Z,2.10
2023-02-05T10:50:12.788Z,2.14
2023-02-05T10:51:12.755Z,2.20
2023-02-05T10:52:12.761Z,2.29
2023-02-05T10:53:12.767Z,2.29
2023-02-05T10:54:12.744Z,2.44
2023-02-05T10:55:12.759Z,2.57
2023-02-05T10:56:12.729Z,2.56
2023-02-05T10:57:12.723Z,2.54
2023-02-05T10:58:12.740Z,2.62
2023-02-05T10:59:12.721Z,2.65
2023-02-05T11:00:12.742Z,2.62
2023-02-05T11:01:12.723Z,2.71
2023-02-05T11:02:12.684Z,2.77
2023-02-05T11:03:12.682Z,2.72
2023-02-05T11:04:12.668Z,2.72
2023-02-05T11:05:12.694Z,2.74
2023-02-05T11:06:12.674Z,2.82
2023-02-05T11:07:12.698Z,2.71
2023-02-05T11:08:12.675Z,2.74
2023-02-05T11:09:12.663Z,2.95
2023-02-05T11:10:12.675Z,2.86
2023-02-05T11:11:12.637Z,2.95
2023-02-05T11:12:12.629Z,2.92
2023-02-05T11:13:12.628Z,2.82
2023-02-05T11:14:12.614Z,2.72
2023-02-05T11:15:12.608Z,2.69
2023-02-05T11:16:12.651Z,2.71
2023-02-05T11:17:12.608Z,2.61
2023-02-05T11:18:12.589Z,2.74
2023-02-05T11:19:14.786Z,2.85
2023-02-05T11:20:12.579Z,2.86
2023-02-05T11:21:12.600Z,2.93
2023-02-05T11:22:12.589Z,2.92
2023-02-05T11:23:12.559Z,2.97
2023-02-05T11:24:12.559Z,3.03
2023-02-05T11:25:12.589Z,2.92
2023-02-05T11:26:12.564Z,2.98
2023-02-05T11:27:12.533Z,3.08
2023-02-05T11:28:12.553Z,3.05
2023-02-05T11:29:12.522Z,3.03
2023-02-05T11:30:12.516Z,2.93
2023-02-05T11:31:12.621Z,2.95
2023-02-05T11:32:13.834Z,3.00
2023-02-05T11:33:12.500Z,2.90
2023-02-05T11:34:12.527Z,3.04
2023-02-05T11:35:12.485Z,3.08
2023-02-05T11:36:12.508Z,3.05
2023-02-05T11:37:12.493Z,3.07
2023-02-05T11:38:12.484Z,3.14
2023-02-05T11:39:12.464Z,3.11
2023-02-05T11:40:12.492Z,3.04
2023-02-05T11:41:12.471Z,2.97
2023-02-05T11:42:12.485Z,3.00
2023-02-05T11:43:12.456Z,2.97
2023-02-05T11:44:12.475Z,2.85
2023-02-05T11:45:12.458Z,2.82
2023-02-05T11:46:12.486Z,2.71
2023-02-05T11:47:12.470Z,2.61
2023-02-05T11:48:12.423Z,2.56
2023-02-05T11:49:12.416Z,2.50
2023-02-05T11:50:12.403Z,2.51
2023-02-05T11:51:12.398Z,2.44
2023-02-05T11:52:12.412Z,2.39
2023-02-05T11:53:12.412Z,2.46
2023-02-05T11:54:12.404Z,2.44
2023-02-05T11:55:12.404Z,2.44
2023-02-05T11:56:12.394Z,2.44
2023-02-05T11:57:12.412Z,2.44
2023-02-05T11:58:12.351Z,2.51
2023-02-05T11:59:12.354Z,2.51
2023-02-05T12:00:12.421Z,2.53
2023-02-05T12:01:12.400Z,2.64
2023-02-05T12:02:12.368Z,2.69
2023-02-05T12:03:12.399Z,2.69
2023-02-05T12:04:12.341Z,2.71
2023-02-05T12:05:12.326Z,2.79
2023-02-05T12:06:12.324Z,2.79
2023-02-05T12:07:12.333Z,2.72
2023-02-05T12:08:12.330Z,2.80
2023-02-05T12:09:12.324Z,2.80
2023-02-05T12:10:12.333Z,2.85
2023-02-05T12:11:12.302Z,2.79
2023-02-05T12:12:12.302Z,2.89
2023-02-05T12:13:12.276Z,2.89
2023-02-05T12:14:12.293Z,2.77
2023-02-05T12:15:12.296Z,2.93
2023-02-05T12:16:12.276Z,2.82
2023-02-05T12:17:12.256Z,2.75
2023-02-05T12:18:12.269Z,2.72
2023-02-05T12:19:12.256Z,2.77
2023-02-05T12:20:12.234Z,2.79
2023-02-05T12:21:12.241Z,2.80
2023-02-05T12:22:12.224Z,2.86
2023-02-05T12:23:12.258Z,2.83
2023-02-05T12:24:12.265Z,2.69
2023-02-05T12:25:12.206Z,2.61
2023-02-05T12:26:12.205Z,2.51
2023-02-05T12:27:12.192Z,2.53
2023-02-05T12:28:12.271Z,2.50
2023-02-05T12:29:12.168Z,2.51
2023-02-05T12:30:12.202Z,2.50
2023-02-05T12:31:12.191Z,2.54
2023-02-05T12:32:12.166Z,2.46
2023-02-05T12:33:12.153Z,2.46
2023-02-05T12:34:12.146Z,2.51
2023-02-05T12:35:12.147Z,2.47
2023-02-05T12:36:12.155Z,2.47
2023-02-05T12:37:12.150Z,2.44
2023-02-05T12:38:13.497Z,2.38
2023-02-05T12:39:12.111Z,2.35
2023-02-05T12:40:12.131Z,2.42
2023-02-05T12:41:12.103Z,2.46
2023-02-05T12:42:12.115Z,2.54
2023-02-05T12:43:12.082Z,2.54
2023-02-05T12:44:12.082Z,2.62
2023-02-05T12:45:12.108Z,2.56
2023-02-05T12:46:12.095Z,2.62
2023-02-05T12:47:12.081Z,2.49
2023-02-05T12:48:12.105Z,2.50
2023-02-05T12:49:12.065Z,2.42
2023-02-05T12:50:12.058Z,2.43
2023-02-05T12:51:12.072Z,2.50
2023-02-05T12:52:12.038Z,2.49
2023-02-05T12:53:12.085Z,2.50
2023-02-05T12:54:12.030Z,2.62
2023-02-05T12:55:12.028Z,2.56
2023-02-05T12:56:12.016Z,2.53
2023-02-05T12:57:12.010Z,2.60
2023-02-05T12:58:12.006Z,2.54
2023-02-05T12:59:12.044Z,2.43
2023-02-05T13:00:12.042Z,2.47
2023-02-05T13:01:11.996Z,2.60
2023-02-05T13:02:12.000Z,2.43
2023-02-05T13:03:11.979Z,2.50
2023-02-05T13:04:11.973Z,2.35
2023-02-05T13:05:11.947Z,2.46
2023-02-05T13:06:12.014Z,2.49
2023-02-05T13:07:11.959Z,2.54
2023-02-05T13:08:11.936Z,2.47
2023-02-05T13:09:11.934Z,2.56
2023-02-05T13:10:11.954Z,2.44
2023-02-05T13:11:11.918Z,2.38